createdAt,value
2023-03-10T00:02:52.639Z,28.00
2023-03-10T00:07:56.473Z,39.85
2023-03-10T00:12:59.823Z,29.67
2023-03-10T00:18:04.761Z,43.03
2023-03-10T00:23:08.190Z,24.50
2023-03-10T00:28:11.775Z,28.48
2023-03-10T00:33:16.757Z,23.17
2023-03-10T00:38:19.998Z,25.40
2023-03-10T00:43:24.194Z,29.30
2023-03-10T00:48:29.038Z,28.83
2023-03-10T00:58:37.561Z,29.33
2023-03-10T01:03:42.597Z,27.95
2023-03-10T01:13:50.261Z,27.02
2023-03-10T01:18:55.297Z,33.72
2023-03-10T01:23:59.069Z,31.73
2023-03-10T01:29:02.286Z,34.17
2023-03-10T01:34:06.878Z,26.20
2023-03-10T01:39:10.477Z,28.92
2023-03-10T01:44:16.779Z,21.25
2023-03-10T01:49:30.016Z,27.92
2023-03-10T01:54:44.299Z,45.45
2023-03-10T01:59:48.975Z,37.22
2023-03-10T02:04:55.231Z,25.65
2023-03-10T02:09:59.264Z,30.27
2023-03-10T02:15:04.322Z,23.58
2023-03-10T02:20:26.143Z,22.60
2023-03-10T02:25:38.507Z,27.00
2023-03-10T02:30:45.196Z,24.63
2023-03-10T02:35:48.833Z,21.63
2023-03-10T02:40:57.457Z,17.60
2023-03-10T02:46:08.335Z,22.33
2023-03-10T02:51:21.451Z,24.30
2023-03-10T02:56:25.270Z,22.70
2023-03-10T03:01:33.072Z,23.00
2023-03-10T03:06:39.866Z,23.10
2023-03-10T03:11:43.349Z,15.98
2023-03-10T03:16:48.256Z,20.90
2023-03-10T03:21:52.174Z,17.95
2023-03-10T03:26:55.666Z,16.17
2023-03-10T03:32:04.799Z,17.13
2023-03-10T03:37:10.437Z,19.05
2023-03-10T03:42:15.854Z,14.15
2023-03-10T03:47:26.091Z,12.07
2023-03-10T03:57:34.467Z,10.25
2023-03-10T04:02:40.869Z,16.80
2023-03-10T04:07:48.241Z,10.20
2023-03-10T04:12:52.773Z,10.73
2023-03-10T04:17:57.920Z,12.45
2023-03-10T04:23:02.193Z,15.30
2023-03-10T04:28:09.745Z,13.30
2023-03-10T04:33:15.042Z,14.13
2023-03-10T04:38:20.254Z,16.02
2023-03-10T04:43:24.638Z,9.95
2023-03-10T04:48:29.612Z,18.33
2023-03-10T04:53:33.632Z,9.70
2023-03-10T04:58:37.493Z,16.88
2023-03-10T05:03:42.453Z,9.35
2023-03-10T05:08:47.710Z,11.40
2023-03-10T05:13:52.616Z,13.27
2023-03-10T05:18:57.620Z,10.57
2023-03-10T05:24:04.380Z,14.75
2023-03-10T05:29:07.746Z,10.10
2023-03-10T05:34:18.781Z,12.73
2023-03-10T05:39:23.730Z,15.65
2023-03-10T05:44:31.014Z,13.23
2023-03-10T05:49:38.732Z,14.55
2023-03-10T05:54:44.028Z,12.18
2023-03-10T05:59:49.294Z,16.05
2023-03-10T06:04:54.920Z,11.77
2023-03-10T06:09:58.284Z,9.50
2023-03-10T06:15:01.635Z,13.98
2023-03-10T06:20:07.182Z,10.95
2023-03-10T06:25:10.770Z,11.65
2023-03-10T06:30:15.073Z,12.18
2023-03-10T06:35:19.885Z,9.07
2023-03-10T06:40:23.386Z,11.80
2023-03-10T06:45:26.806Z,10.30
2023-03-10T06:50:31.782Z,11.77
2023-03-10T06:55:35.033Z,9.93
2023-03-10T07:00:39.738Z,12.93
2023-03-10T07:05:44.315Z,14.32
2023-03-10T07:10:48.119Z,11.75
2023-03-10T07:15:51.587Z,11.85
2023-03-10T07:20:56.364Z,9.75
2023-03-10T07:25:59.908Z,11.10
2023-03-10T07:31:04.192Z,13.20
2023-03-10T07:36:11.787Z,9.70
2023-03-10T07:41:17.345Z,13.38
2023-03-10T07:46:21.531Z,10.52
2023-03-10T07:51:26.463Z,18.17
2023-03-10T07:56:29.682Z,13.88
2023-03-10T08:01:33.008Z,12.98
2023-03-10T08:06:38.309Z,11.10
2023-03-10T08:11:41.907Z,12.82
2023-03-10T08:16:45.154Z,13.02
2023-03-10T08:21:49.881Z,13.43
2023-03-10T08:26:53.303Z,16.17
2023-03-10T08:31:56.949Z,13.15
2023-03-10T08:37:02.257Z,10.52
2023-03-10T08:42:05.838Z,13.75
2023-03-10T08:47:09.337Z,13.70
2023-03-10T08:52:14.012Z,10.57
2023-03-10T08:57:17.309Z,11.60
2023-03-10T09:02:22.144Z,18.70
2023-03-10T09:07:26.856Z,14.23
2023-03-10T09:12:35.034Z,15.23
2023-03-10T09:17:40.871Z,19.65
2023-03-10T09:22:45.689Z,18.73
2023-03-10T09:27:49.661Z,17.20
2023-03-10T09:32:53.299Z,14.43
2023-03-10T09:37:58.113Z,17.80
2023-03-10T09:43:03.782Z,19.80
2023-03-10T09:48:30.452Z,25.23
2023-03-10T09:53:53.514Z,14.30
2023-03-10T09:59:00.015Z,13.18
2023-03-10T10:04:09.601Z,17.27
2023-03-10T10:09:21.252Z,14.73
2023-03-10T10:14:30.469Z,16.30
2023-03-10T10:19:37.336Z,12.57
2023-03-10T10:24:53.297Z,16.77
2023-03-10T10:29:56.550Z,15.13
2023-03-10T10:35:14.269Z,14.23
2023-03-10T10:40:26.758Z,18.17
2023-03-10T10:45:34.330Z,16.67
2023-03-10T10:50:37.875Z,18.52
2023-03-10T10:55:44.082Z,16.50
2023-03-10T11:00:55.183Z,19.83
2023-03-10T11:06:00.718Z,23.50
2023-03-10T11:11:18.792Z,18.08
2023-03-10T11:16:28.353Z,14.93
2023-03-10T11:21:37.036Z,13.48
2023-03-10T11:26:50.813Z,12.50
2023-03-10T11:32:01.681Z,18.55
2023-03-10T11:37:18.020Z,14.52
2023-03-10T11:42:34.332Z,16.05
2023-03-10T11:47:51.421Z,13.20
2023-03-10T11:52:59.644Z,12.15
2023-03-10T11:58:05.617Z,11.50
2023-03-10T12:03:16.832Z,13.93
2023-03-10T12:08:23.423Z,9.23
2023-03-10T12:13:32.906Z,16.10
2023-03-10T12:18:37.314Z,11.38
2023-03-10T12:23:42.230Z,12.10
2023-03-10T12:28:46.776Z,11.93
2023-03-10T12:33:52.728Z,19.93
2023-03-10T12:39:00.132Z,11.40
2023-03-10T12:44:25.974Z,14.55
2023-03-10T12:49:36.185Z,13.88
2023-03-10T12:54:53.978Z,12.88
2023-03-10T13:00:06.587Z,11.60
2023-03-10T13:05:20.401Z,12.60
2023-03-10T13:10:25.351Z,11.50
2023-03-10T13:15:32.111Z,11.80
2023-03-10T13:20:36.904Z,14.95
2023-03-10T13:25:51.572Z,13.85
2023-03-10T13:31:18.433Z,15.35
2023-03-10T13:36:28.667Z,14.52
2023-03-10T13:41:37.523Z,13.45
2023-03-10T13:46:47.799Z,11.57
2023-03-10T13:51:56.030Z,16.83
2023-03-10T13:57:07.367Z,14.25
2023-03-10T14:02:17.851Z,11.73
2023-03-10T14:07:23.460Z,12.63
2023-03-10T14:12:37.987Z,14.60
2023-03-10T14:17:43.388Z,13.80
2023-03-10T14:27:55.469Z,19.58
2023-03-10T14:33:01.788Z,20.52
2023-03-10T14:38:05.312Z,22.10
2023-03-10T14:43:15.505Z,17.27
2023-03-10T14:48:22.761Z,17.38
2023-03-10T14:53:27.577Z,17.63
2023-03-10T14:58:33.706Z,19.73
2023-03-10T15:03:38.423Z,16.40
2023-03-10T15:08:41.726Z,17.25
2023-03-10T15:13:44.907Z,12.93
2023-03-10T15:18:49.928Z,17.55
2023-03-10T15:23:54.881Z,11.82
2023-03-10T15:28:58.096Z,22.05
2023-03-10T15:34:02.672Z,16.38
2023-03-10T15:39:06.042Z,12.52
2023-03-10T15:44:10.069Z,18.02
2023-03-10T15:49:14.770Z,15.02
2023-03-10T15:54:18.063Z,12.73
2023-03-10T15:59:22.264Z,10.40
2023-03-10T16:04:26.877Z,17.80
2023-03-10T16:09:30.371Z,16.25
2023-03-10T16:14:34.089Z,13.75
2023-03-10T16:19:38.930Z,15.27
2023-03-10T16:24:42.354Z,17.60
2023-03-10T16:29:45.881Z,15.55
2023-03-10T16:34:53.505Z,14.13
2023-03-10T16:39:57.580Z,17.98
2023-03-10T16:45:00.782Z,15.25
2023-03-10T16:50:06.545Z,16.27
2023-03-10T16:55:16.960Z,16.80
2023-03-10T17:00:21.121Z,16.05
2023-03-10T17:05:26.021Z,16.85
2023-03-10T17:10:29.680Z,16.83
2023-03-10T17:15:32.930Z,24.15
2023-03-10T17:20:39.468Z,18.52
2023-03-10T17:25:43.765Z,18.60
2023-03-10T17:30:48.786Z,19.00
2023-03-10T17:35:53.739Z,20.58
2023-03-10T17:40:56.972Z,25.02
2023-03-10T17:46:02.093Z,20.75
2023-03-10T17:51:07.344Z,18.30
2023-03-10T18:01:15.539Z,16.75
2023-03-10T18:06:22.675Z,19.08
2023-03-10T18:11:26.975Z,22.65
2023-03-10T18:16:31.708Z,16.98
2023-03-10T18:21:36.316Z,27.15
2023-03-10T18:26:43.390Z,22.00
2023-03-10T18:31:47.258Z,19.80
2023-03-10T18:36:51.972Z,19.17
2023-03-10T18:41:55.390Z,22.90
2023-03-10T18:46:58.688Z,21.23
2023-03-10T18:52:03.370Z,23.63
2023-03-10T18:57:06.664Z,23.92
2023-03-10T19:02:13.948Z,29.65
2023-03-10T19:07:21.774Z,30.10
2023-03-10T19:12:25.640Z,20.38
2023-03-10T19:17:29.365Z,21.20
2023-03-10T19:22:34.992Z,21.88
2023-03-10T19:27:42.165Z,24.73
2023-03-10T19:32:46.083Z,22.52
2023-03-10T19:37:50.702Z,21.00
2023-03-10T19:47:58.034Z,20.05
2023-03-10T19:53:02.690Z,15.98
2023-03-10T19:58:06.023Z,14.02
2023-03-10T20:03:09.896Z,15.82
2023-03-10T20:08:14.788Z,15.82
2023-03-10T20:13:18.110Z,15.23
2023-03-10T20:18:22.698Z,15.97
2023-03-10T20:23:27.249Z,17.13
2023-03-10T20:28:30.775Z,21.30
2023-03-10T20:33:35.598Z,24.63
2023-03-10T20:38:40.667Z,14.65
2023-03-10T20:48:48.584Z,14.73
2023-03-10T20:53:53.579Z,21.92
2023-03-10T20:58:59.472Z,22.40
2023-03-10T21:04:04.238Z,16.33
2023-03-10T21:09:09.108Z,20.57
2023-03-10T21:14:12.468Z,17.63
2023-03-10T21:19:15.849Z,21.15
2023-03-10T21:24:20.722Z,23.25
2023-03-10T21:29:24.049Z,22.58
2023-03-10T21:34:28.029Z,23.73
2023-03-10T21:39:32.758Z,20.73
2023-03-10T21:44:36.032Z,21.50
2023-03-10T21:49:39.493Z,22.95
2023-03-10T21:54:44.682Z,29.50
2023-03-10T21:59:48.163Z,18.52
2023-03-10T22:04:51.667Z,26.75
2023-03-10T22:09:56.372Z,20.75
2023-03-10T22:14:59.692Z,24.70
2023-03-10T22:20:06.597Z,26.25
2023-03-10T22:25:12.312Z,18.52
2023-03-10T22:35:19.840Z,17.55
2023-03-10T22:40:25.530Z,21.38
2023-03-10T22:45:31.176Z,18.75
2023-03-10T22:50:36.382Z,22.52
2023-03-10T23:00:47.150Z,17.83
2023-03-10T23:05:50.914Z,19.17
2023-03-10T23:10:55.571Z,18.17
2023-03-10T23:16:00.037Z,20.65
2023-03-10T23:21:04.396Z,23.23
2023-03-10T23:26:09.312Z,24.37
2023-03-10T23:31:17.155Z,24.13
2023-03-10T23:36:21.035Z,16.05
2023-03-10T23:41:25.738Z,19.50
2023-03-10T23:46:29.139Z,20.13
2023-03-10T23:51:32.496Z,21.33
2023-03-10T23:56:37.254Z,20.27
